createdAt,value
2018-09-13T00:02:00.669Z,16.09
2018-09-13T00:04:28.417Z,16.11
2018-09-13T00:06:57.329Z,16.11
2018-09-13T00:09:25.642Z,16.11
2018-09-13T00:11:53.963Z,16.13
2018-09-13T00:14:22.276Z,16.15
2018-09-13T00:16:50.020Z,16.16
2018-09-13T00:19:18.342Z,16.12
2018-09-13T00:21:46.673Z,16.09
2018-09-13T00:24:14.992Z,16.06
2018-09-13T00:26:43.905Z,16.06
2018-09-13T00:29:11.645Z,16.00
2018-09-13T00:31:40.548Z,15.95
2018-09-13T00:34:08.877Z,15.97
2018-09-13T00:36:37.194Z,15.99
2018-09-13T00:39:04.947Z,16.01
2018-09-13T00:41:33.268Z,16.00
2018-09-13T00:44:01.585Z,16.02
2018-09-13T00:46:30.495Z,16.02
2018-09-13T00:48:58.811Z,16.01
2018-09-13T00:51:27.140Z,15.97
2018-09-13T00:53:54.884Z,15.93
2018-09-13T00:56:23.208Z,15.92
2018-09-13T00:58:51.539Z,15.91
2018-09-13T01:01:20.433Z,15.90
2018-09-13T01:03:48.761Z,15.87
2018-09-13T01:06:17.085Z,15.89
2018-09-13T01:08:45.402Z,15.89
2018-09-13T01:11:13.733Z,15.89
2018-09-13T01:13:41.473Z,15.85
2018-09-13T01:16:09.934Z,15.81
2018-09-13T01:18:38.124Z,15.76
2018-09-13T01:21:06.444Z,15.74
2018-09-13T01:23:34.845Z,15.72
2018-09-13T01:26:03.665Z,15.70
2018-09-13T01:28:31.976Z,15.69
2018-09-13T01:30:59.721Z,15.67
2018-09-13T01:33:28.615Z,15.66
2018-09-13T01:35:56.940Z,15.65
2018-09-13T01:38:25.271Z,15.63
2018-09-13T01:40:53.594Z,15.61
2018-09-13T01:43:21.922Z,15.59
2018-09-13T01:45:50.249Z,15.55
2018-09-13T01:48:18.556Z,15.50
2018-09-13T01:50:46.882Z,15.49
2018-09-13T01:53:14.615Z,15.45
2018-09-13T01:55:42.933Z,15.42
2018-09-13T01:58:11.260Z,15.39
2018-09-13T02:00:40.150Z,15.36
2018-09-13T02:03:07.887Z,15.32
2018-09-13T02:05:36.781Z,15.31
2018-09-13T02:08:05.116Z,15.28
2018-09-13T02:10:32.844Z,15.26
2018-09-13T02:13:01.181Z,15.20
2018-09-13T02:15:30.082Z,15.09
2018-09-13T02:17:57.830Z,14.95
2018-09-13T02:20:26.405Z,14.88
2018-09-13T02:22:55.061Z,14.91
2018-09-13T02:25:23.384Z,14.98
2018-09-13T02:27:51.713Z,15.04
2018-09-13T02:30:19.462Z,15.08
2018-09-13T02:32:48.362Z,15.08
2018-09-13T02:35:16.679Z,15.00
2018-09-13T02:37:44.997Z,14.92
2018-09-13T02:40:13.311Z,14.84
2018-09-13T02:42:41.643Z,14.85
2018-09-13T02:45:09.962Z,14.81
2018-09-13T02:47:38.293Z,14.80
2018-09-13T02:50:06.614Z,14.85
2018-09-13T02:52:34.931Z,14.92
2018-09-13T02:55:03.256Z,14.99
2018-09-13T02:57:30.990Z,15.03
2018-09-13T02:59:59.883Z,15.04
2018-09-13T03:02:28.207Z,15.03
2018-09-13T03:04:56.534Z,15.04
2018-09-13T03:07:24.867Z,15.04
2018-09-13T03:09:52.597Z,15.04
2018-09-13T03:12:21.502Z,15.04
2018-09-13T03:14:49.441Z,15.03
2018-09-13T03:17:18.152Z,15.02
2018-09-13T03:19:46.479Z,15.00
2018-09-13T03:22:15.390Z,14.93
2018-09-13T03:24:43.130Z,14.86
2018-09-13T03:27:12.045Z,14.79
2018-09-13T03:29:39.767Z,14.79
2018-09-13T03:32:07.499Z,14.81
2018-09-13T03:34:36.397Z,14.85
2018-09-13T03:37:04.716Z,14.87
2018-09-13T03:39:33.027Z,14.89
2018-09-13T03:42:01.392Z,14.88
2018-09-13T03:44:29.088Z,14.89
2018-09-13T03:46:57.420Z,14.91
2018-09-13T03:49:25.862Z,14.91
2018-09-13T03:51:54.074Z,14.92
2018-09-13T03:54:22.971Z,14.93
2018-09-13T03:56:50.730Z,14.95
2018-09-13T03:59:19.049Z,14.96
2018-09-13T04:01:47.959Z,14.96
2018-09-13T04:04:16.272Z,14.90
2018-09-13T04:06:44.030Z,14.76
2018-09-13T04:09:12.988Z,14.49
2018-09-13T04:11:41.269Z,14.30
2018-09-13T04:14:09.595Z,14.30
2018-09-13T04:16:37.948Z,14.38
2018-09-13T04:19:05.684Z,14.44
2018-09-13T04:21:34.614Z,14.49
2018-09-13T04:24:02.333Z,14.55
2018-09-13T04:26:31.241Z,14.60
2018-09-13T04:28:59.551Z,14.59
2018-09-13T04:31:27.294Z,14.51
2018-09-13T04:33:55.618Z,14.44
2018-09-13T04:36:24.531Z,14.39
2018-09-13T04:38:52.849Z,14.43
2018-09-13T04:41:21.405Z,14.45
2018-09-13T04:43:49.231Z,14.43
2018-09-13T04:46:17.841Z,14.42
2018-09-13T04:48:46.196Z,14.40
2018-09-13T04:51:14.522Z,14.43
2018-09-13T04:53:42.323Z,14.53
2018-09-13T04:56:11.174Z,14.64
2018-09-13T04:58:39.494Z,14.71
2018-09-13T05:01:07.239Z,14.76
2018-09-13T05:03:36.139Z,14.81
2018-09-13T05:06:03.880Z,14.82
2018-09-13T05:08:32.203Z,14.85
2018-09-13T05:11:01.110Z,14.91
2018-09-13T05:13:28.853Z,14.95
2018-09-13T05:15:57.767Z,14.96
2018-09-13T05:18:26.085Z,14.99
2018-09-13T05:20:54.503Z,15.02
2018-09-13T05:23:22.839Z,15.03
2018-09-13T05:25:50.584Z,15.03
2018-09-13T05:28:19.487Z,15.04
2018-09-13T05:30:47.818Z,15.02
2018-09-13T05:33:15.562Z,14.98
2018-09-13T05:35:43.898Z,15.00
2018-09-13T05:38:12.796Z,14.98
2018-09-13T05:40:41.113Z,14.96
2018-09-13T05:43:08.861Z,15.03
2018-09-13T05:45:37.224Z,15.07
2018-09-13T05:48:05.513Z,15.12
2018-09-13T05:50:34.418Z,15.17
2018-09-13T05:53:02.748Z,15.28
2018-09-13T05:55:30.495Z,15.36
2018-09-13T05:57:58.855Z,15.30
2018-09-13T06:00:27.798Z,15.19
2018-09-13T06:02:56.127Z,15.16
2018-09-13T06:05:23.876Z,15.11
2018-09-13T06:07:52.484Z,15.16
2018-09-13T06:10:21.331Z,15.30
2018-09-13T06:12:49.448Z,15.39
2018-09-13T06:15:18.143Z,15.52
2018-09-13T06:17:46.353Z,15.62
2018-09-13T06:20:14.686Z,15.73
2018-09-13T06:22:43.019Z,15.81
2018-09-13T06:25:10.764Z,15.87
2018-09-13T06:27:39.686Z,15.91
2018-09-13T06:30:08.025Z,15.92
2018-09-13T06:32:36.367Z,15.99
2018-09-13T06:35:05.609Z,16.07
2018-09-13T06:37:33.420Z,16.07
2018-09-13T06:40:02.347Z,16.02
2018-09-13T06:42:30.749Z,16.00
2018-09-13T06:44:59.002Z,15.99
2018-09-13T06:47:29.471Z,15.98
2018-09-13T06:49:55.080Z,16.03
2018-09-13T06:52:24.040Z,16.14
2018-09-13T06:54:51.770Z,16.21
2018-09-13T06:57:20.736Z,16.20
2018-09-13T06:59:48.643Z,16.15
2018-09-13T07:02:18.045Z,16.17
2018-09-13T07:04:46.343Z,16.24
2018-09-13T07:07:14.078Z,16.33
2018-09-13T07:09:42.408Z,16.38
2018-09-13T07:12:11.311Z,16.46
2018-09-13T07:14:39.646Z,16.52
2018-09-13T07:17:07.384Z,16.64
2018-09-13T07:19:36.293Z,16.68
2018-09-13T07:22:04.632Z,16.75
2018-09-13T07:24:32.374Z,16.83
2018-09-13T07:27:01.292Z,16.86
2018-09-13T07:29:29.053Z,16.85
2018-09-13T07:31:57.961Z,16.83
2018-09-13T07:34:26.314Z,16.81
2018-09-13T07:36:54.122Z,16.78
2018-09-13T07:39:22.976Z,16.81
2018-09-13T07:41:50.721Z,16.84
2018-09-13T07:44:19.061Z,16.90
2018-09-13T07:46:47.967Z,16.95
2018-09-13T07:49:16.670Z,16.94
2018-09-13T07:51:44.926Z,16.93
2018-09-13T07:54:13.243Z,16.93
2018-09-13T07:56:41.584Z,16.95
2018-09-13T07:59:10.469Z,17.06
2018-09-13T08:01:40.937Z,17.12
2018-09-13T08:04:09.336Z,17.22
2018-09-13T08:06:35.975Z,17.33
2018-09-13T08:09:04.828Z,17.44
2018-09-13T08:11:33.188Z,17.62
2018-09-13T08:14:00.930Z,17.76
2018-09-13T08:16:30.044Z,17.78
2018-09-13T08:18:59.348Z,17.87
2018-09-13T08:21:28.024Z,17.87
2018-09-13T08:23:55.784Z,17.99
2018-09-13T08:26:24.996Z,18.03
2018-09-13T08:28:53.346Z,18.15
2018-09-13T08:31:21.711Z,18.20
2018-09-13T08:33:50.031Z,18.27
2018-09-13T08:36:19.384Z,18.35
2018-09-13T08:38:47.746Z,18.29
2018-09-13T08:41:16.349Z,18.25
2018-09-13T08:43:44.656Z,18.18
2018-09-13T08:46:12.406Z,18.17
2018-09-13T08:48:44.713Z,18.26
2018-09-13T08:51:09.666Z,18.24
2018-09-13T08:53:37.405Z,18.27
2018-09-13T08:56:05.737Z,18.37
2018-09-13T08:58:34.647Z,18.48
2018-09-13T09:01:03.203Z,18.53
2018-09-13T09:03:33.811Z,18.61
2018-09-13T09:06:02.177Z,18.67
2018-09-13T09:08:32.135Z,18.73
2018-09-13T09:11:01.888Z,18.75
2018-09-13T09:16:24.760Z,18.80
2018-09-13T09:18:53.073Z,18.82
2018-09-13T09:21:21.492Z,18.79
2018-09-13T09:23:50.296Z,18.79
2018-09-13T09:26:18.796Z,18.80
2018-09-13T09:28:47.143Z,18.84
2018-09-13T09:31:15.672Z,18.83
2018-09-13T09:33:53.596Z,18.83
2018-09-13T09:36:21.897Z,18.86
2018-09-13T09:38:49.695Z,18.89
2018-09-13T09:41:18.747Z,18.98
2018-09-13T09:43:51.601Z,19.07
2018-09-13T09:46:16.029Z,19.12
2018-09-13T09:48:44.659Z,19.00
2018-09-13T09:51:13.229Z,18.92
2018-09-13T09:53:41.550Z,18.84
2018-09-13T09:56:09.889Z,18.74
2018-09-13T09:58:37.621Z,18.73
2018-09-13T10:01:06.526Z,18.80
2018-09-13T10:03:36.991Z,18.97
2018-09-13T10:06:03.219Z,19.14
2018-09-13T10:08:31.784Z,19.31
2018-09-13T10:11:00.196Z,19.41
2018-09-13T10:13:28.870Z,19.47
2018-09-13T10:15:57.751Z,19.53
2018-09-13T10:18:29.830Z,19.59
2018-09-13T10:20:59.799Z,19.65
2018-09-13T10:23:33.937Z,19.73
2018-09-13T10:26:02.225Z,19.84
2018-09-13T10:28:32.348Z,19.91
2018-09-13T10:31:01.709Z,19.94
2018-09-13T10:33:36.077Z,19.93
2018-09-13T10:36:04.965Z,19.81
2018-09-13T10:38:40.165Z,19.58
2018-09-13T10:41:09.002Z,19.55
2018-09-13T10:43:38.606Z,19.53
2018-09-13T10:46:12.806Z,19.35
2018-09-13T10:48:41.711Z,19.20
2018-09-13T10:51:10.042Z,19.26
2018-09-13T10:53:38.706Z,19.38
2018-09-13T10:56:07.404Z,19.45
2018-09-13T10:58:35.733Z,19.30
2018-09-13T11:01:04.059Z,19.24
2018-09-13T11:03:32.915Z,19.31
2018-09-13T11:06:01.221Z,19.40
2018-09-13T11:08:30.124Z,19.53
2018-09-13T11:10:58.542Z,19.65
2018-09-13T11:13:26.801Z,19.72
2018-09-13T11:15:55.457Z,19.74
2018-09-13T11:18:23.211Z,19.77
2018-09-13T11:20:52.119Z,19.80
2018-09-13T11:23:19.861Z,19.80
2018-09-13T11:25:49.087Z,19.78
2018-09-13T11:28:17.429Z,19.76
2018-09-13T11:30:45.766Z,19.72
2018-09-13T11:33:14.087Z,19.72
2018-09-13T11:35:42.452Z,19.77
2018-09-13T11:38:10.778Z,19.76
2018-09-13T11:40:38.681Z,19.78
2018-09-13T11:43:08.674Z,19.71
2018-09-13T11:45:37.524Z,19.69
2018-09-13T11:48:05.887Z,19.63
2018-09-13T11:50:34.998Z,19.51
2018-09-13T11:53:03.335Z,19.41
2018-09-13T11:55:31.090Z,19.44
2018-09-13T11:58:00.975Z,19.61
2018-09-13T12:00:29.310Z,19.77
2018-09-13T12:02:57.632Z,20.05
2018-09-13T12:05:25.389Z,20.32
2018-09-13T12:07:54.312Z,20.51
2018-09-13T12:10:22.645Z,20.72
2018-09-13T12:12:50.950Z,20.97
2018-09-13T12:15:19.524Z,21.22
2018-09-13T12:17:48.245Z,21.44
2018-09-13T12:20:15.973Z,21.69
2018-09-13T12:22:44.365Z,21.93
2018-09-13T12:25:12.098Z,22.10
2018-09-13T12:27:41.007Z,22.16
2018-09-13T12:30:09.340Z,22.28
2018-09-13T12:32:37.722Z,22.62
2018-09-13T12:35:06.036Z,22.90
2018-09-13T12:37:34.409Z,23.18
2018-09-13T12:40:02.742Z,23.29
2018-09-13T12:42:31.078Z,23.36
2018-09-13T12:44:58.832Z,23.37
2018-09-13T12:47:27.176Z,23.73
2018-09-13T12:49:55.600Z,23.67
2018-09-13T12:52:23.974Z,23.60
2018-09-13T12:54:53.062Z,23.51
2018-09-13T12:57:21.878Z,23.59
2018-09-13T12:59:49.979Z,23.69
2018-09-13T13:02:18.284Z,23.78
2018-09-13T13:04:46.630Z,24.07
2018-09-13T13:07:14.954Z,24.45
2018-09-13T13:09:42.710Z,24.83
2018-09-13T13:12:11.633Z,24.93
2018-09-13T13:17:39.520Z,24.75
2018-09-13T13:20:07.250Z,25.11
2018-09-13T13:22:36.154Z,25.21
2018-09-13T13:59:31.055Z,23.16
2018-09-13T14:02:01.056Z,22.94
2018-09-13T14:04:29.373Z,22.79
2018-09-13T14:06:57.713Z,22.59
2018-09-13T14:09:26.046Z,22.45
2018-09-13T14:11:54.851Z,22.27
2018-09-13T14:14:23.175Z,21.99
2018-09-13T14:16:51.532Z,22.26
2018-09-13T14:19:19.935Z,23.18
2018-09-13T14:21:48.221Z,24.23
2018-09-13T14:24:16.062Z,25.05
2018-09-13T14:26:45.004Z,25.30
2018-09-13T14:29:13.313Z,25.62
2018-09-13T14:31:41.692Z,26.12
2018-09-13T14:34:09.454Z,26.55
2018-09-13T14:36:38.602Z,26.52
2018-09-13T14:39:06.116Z,26.48
2018-09-13T14:41:35.024Z,26.42
2018-09-13T14:44:03.127Z,26.66
2018-09-13T14:46:32.055Z,26.78
2018-09-13T14:49:01.127Z,27.45
2018-09-13T14:51:30.502Z,27.35
2018-09-13T14:53:59.509Z,27.08
2018-09-13T14:56:28.408Z,26.19
2018-09-13T14:58:58.470Z,25.14
2018-09-13T15:01:27.168Z,24.26
2018-09-13T15:03:55.496Z,23.55
2018-09-13T15:06:23.819Z,23.73
2018-09-13T15:08:52.146Z,24.35
2018-09-13T15:11:20.728Z,25.24
2018-09-13T15:13:48.827Z,25.81
2018-09-13T15:16:17.152Z,26.27
2018-09-13T15:18:45.714Z,27.10
2018-09-13T15:21:15.461Z,27.67
2018-09-13T15:23:44.636Z,28.18
2018-09-13T15:26:12.976Z,28.01
2018-09-13T15:28:41.336Z,28.00
2018-09-13T15:31:09.972Z,27.13
2018-09-13T15:33:38.040Z,26.37
2018-09-13T15:36:07.365Z,25.82
2018-09-13T15:38:34.390Z,25.26
2018-09-13T15:41:03.282Z,24.83
2018-09-13T15:43:37.770Z,24.60
2018-09-13T15:46:06.128Z,24.42
2018-09-13T15:48:36.691Z,24.13
2018-09-13T15:51:05.011Z,23.75
2018-09-13T15:53:33.837Z,23.63
2018-09-13T15:56:01.590Z,23.55
2018-09-13T15:58:31.617Z,23.52
2018-09-13T16:00:59.948Z,23.44
2018-09-13T16:03:28.691Z,23.30
2018-09-13T16:05:57.094Z,23.19
2018-09-13T16:08:25.756Z,23.02
2018-09-13T16:10:54.098Z,22.92
2018-09-13T16:13:22.457Z,22.81
2018-09-13T16:15:50.788Z,22.75
2018-09-13T16:18:19.121Z,22.66
2018-09-13T16:20:47.529Z,22.56
2018-09-13T16:23:16.247Z,22.44
2018-09-13T16:25:44.616Z,22.41
2018-09-13T16:28:12.998Z,22.35
2018-09-13T16:30:41.327Z,22.36
2018-09-13T16:33:09.087Z,22.29
2018-09-13T16:35:37.982Z,22.24
2018-09-13T16:38:06.369Z,22.06
2018-09-13T16:40:34.719Z,21.88
2018-09-13T16:43:08.067Z,21.68
2018-09-13T16:45:36.448Z,21.55
2018-09-13T16:48:05.342Z,21.39
2018-09-13T16:50:33.889Z,21.29
2018-09-13T16:53:02.016Z,21.26
2018-09-13T16:55:30.341Z,21.10
2018-09-13T16:57:58.828Z,21.01
2018-09-13T17:00:27.595Z,20.97
2018-09-13T17:02:56.111Z,20.86
2018-09-13T17:05:24.459Z,20.83
2018-09-13T17:07:53.180Z,20.77
2018-09-13T17:10:21.589Z,20.56
2018-09-13T17:12:49.936Z,20.33
2018-09-13T17:15:18.350Z,20.16
2018-09-13T17:17:46.688Z,20.13
2018-09-13T17:20:15.130Z,20.17
2018-09-13T17:22:43.566Z,20.17
2018-09-13T17:25:12.136Z,20.08
2018-09-13T17:27:40.589Z,19.95
2018-09-13T17:30:09.064Z,19.93
2018-09-13T17:32:37.696Z,19.94
2018-09-13T17:35:06.206Z,19.95
2018-09-13T17:37:34.629Z,19.91
2018-09-13T17:40:03.221Z,19.81
2018-09-13T17:42:31.602Z,19.64
2018-09-13T17:45:00.280Z,19.50
2018-09-13T17:47:28.676Z,19.42
2018-09-13T17:49:57.116Z,19.15
2018-09-13T17:52:25.847Z,18.75
2018-09-13T17:54:54.234Z,18.35
2018-09-13T17:57:22.565Z,18.16
2018-09-13T17:59:51.008Z,18.06
2018-09-13T18:02:19.380Z,17.98
2018-09-13T18:04:47.724Z,17.82
2018-09-13T18:07:16.467Z,17.73
2018-09-13T18:09:44.817Z,17.66
2018-09-13T18:12:13.299Z,17.63
2018-09-13T18:14:41.703Z,17.54
2018-09-13T18:17:10.131Z,17.43
2018-09-13T18:19:38.476Z,17.37
2018-09-13T18:22:06.863Z,17.27
2018-09-13T18:24:35.243Z,17.09
2018-09-13T18:27:04.028Z,16.97
2018-09-13T18:29:32.462Z,16.91
2018-09-13T18:32:00.838Z,16.86
2018-09-13T18:34:29.680Z,16.79
2018-09-13T18:36:57.449Z,16.79
2018-09-13T18:39:26.364Z,16.85
2018-09-13T18:41:54.703Z,17.01
2018-09-13T18:44:22.552Z,17.07
2018-09-13T18:46:50.882Z,17.11
2018-09-13T18:49:19.210Z,16.92
2018-09-13T18:51:47.555Z,16.71
2018-09-13T18:54:16.499Z,16.60
2018-09-13T18:56:44.821Z,16.53
2018-09-13T18:59:13.179Z,16.39
2018-09-13T19:01:42.903Z,16.28
2018-09-13T19:04:11.236Z,16.22
2018-09-13T19:06:39.589Z,16.18
2018-09-13T19:09:07.938Z,16.12
2018-09-13T19:11:36.337Z,16.05
2018-09-13T19:14:04.646Z,16.01
2018-09-13T19:16:34.011Z,15.99
2018-09-13T19:19:01.427Z,15.95
2018-09-13T19:21:29.796Z,15.92
2018-09-13T19:23:58.290Z,15.80
2018-09-13T19:26:26.663Z,15.72
2018-09-13T19:28:57.228Z,15.61
2018-09-13T19:31:26.909Z,15.50
2018-09-13T19:33:59.142Z,15.37
2018-09-13T19:36:29.497Z,15.33
2018-09-13T19:39:03.531Z,15.28
2018-09-13T19:41:35.083Z,15.17
2018-09-13T19:44:05.127Z,15.11
2018-09-13T19:46:36.356Z,14.99
2018-09-13T19:52:07.630Z,14.91
2018-09-13T19:54:45.366Z,14.91
2018-09-13T19:57:15.581Z,15.02
2018-09-13T19:59:47.383Z,14.94
2018-09-13T20:02:16.787Z,14.84
2018-09-13T20:07:33.149Z,14.80
2018-09-13T20:10:02.822Z,14.83
2018-09-13T20:12:31.208Z,14.82
2018-09-13T20:15:03.792Z,14.69
2018-09-13T20:17:32.276Z,14.49
2018-09-13T20:20:01.166Z,14.39
2018-09-13T20:22:30.210Z,14.29
2018-09-13T20:25:03.646Z,14.27
2018-09-13T20:27:33.620Z,14.30
2018-09-13T20:30:02.189Z,14.35
2018-09-13T20:32:30.362Z,14.36
2018-09-13T20:34:58.688Z,14.35
2018-09-13T20:37:26.478Z,14.39
2018-09-13T20:39:55.410Z,14.38
2018-09-13T20:42:23.744Z,14.26
2018-09-13T20:44:51.508Z,14.16
2018-09-13T20:47:19.838Z,14.21
2018-09-13T20:49:48.749Z,14.15
2018-09-13T20:52:17.072Z,14.11
2018-09-13T20:54:45.489Z,14.10
2018-09-13T20:57:13.245Z,14.07
2018-09-13T20:59:43.141Z,14.18
2018-09-13T21:02:10.882Z,14.36
2018-09-13T21:04:39.796Z,14.57
2018-09-13T21:07:08.165Z,14.66
2018-09-13T21:09:36.528Z,14.68
2018-09-13T21:12:04.907Z,14.62
2018-09-13T21:14:33.225Z,14.21
2018-09-13T21:17:01.623Z,14.01
2018-09-13T21:19:29.928Z,13.83
2018-09-13T21:21:58.285Z,13.87
2018-09-13T21:24:26.654Z,13.89
2018-09-13T21:26:54.936Z,13.86
2018-09-13T21:29:23.321Z,13.90
2018-09-13T21:31:51.772Z,13.97
2018-09-13T21:34:20.097Z,13.94
2018-09-13T21:36:47.849Z,13.94
2018-09-13T21:39:16.199Z,13.86
2018-09-13T21:41:44.521Z,13.75
2018-09-13T21:44:13.446Z,13.63
2018-09-13T21:46:41.783Z,13.52
2018-09-13T21:49:10.105Z,13.52
2018-09-13T21:51:38.439Z,13.53
2018-09-13T21:54:06.178Z,13.61
2018-09-13T21:56:34.510Z,13.69
2018-09-13T21:59:02.829Z,13.76
2018-09-13T22:01:31.735Z,13.78
2018-09-13T22:03:59.472Z,13.78
2018-09-13T22:06:28.381Z,13.73
2018-09-13T22:08:56.700Z,13.66
2018-09-13T22:11:25.093Z,13.58
2018-09-13T22:13:53.352Z,13.49
2018-09-13T22:16:21.682Z,13.44
2018-09-13T22:18:50.039Z,13.53
2018-09-13T22:21:18.415Z,13.66
2018-09-13T22:23:46.115Z,13.81
2018-09-13T22:26:15.015Z,13.91
2018-09-13T22:28:43.344Z,13.98
2018-09-13T22:31:11.218Z,14.06
2018-09-13T22:33:40.006Z,14.02
2018-09-13T22:36:08.328Z,13.74
2018-09-13T22:38:36.658Z,13.47
2018-09-13T22:41:04.393Z,13.35
2018-09-13T22:43:33.290Z,13.30
2018-09-13T22:46:01.626Z,13.27
2018-09-13T22:48:29.936Z,13.16
2018-09-13T22:50:57.684Z,13.06
2018-09-13T22:53:26.084Z,13.02
2018-09-13T22:55:54.919Z,13.05
2018-09-13T22:58:22.659Z,12.99
2018-09-13T23:00:50.980Z,12.88
2018-09-13T23:03:19.876Z,12.96
2018-09-13T23:05:47.626Z,12.95
2018-09-13T23:08:15.941Z,12.90
2018-09-13T23:10:44.849Z,12.86
2018-09-13T23:13:13.168Z,12.86
2018-09-13T23:15:41.484Z,12.88
2018-09-13T23:18:09.805Z,13.00
2018-09-13T23:20:37.554Z,13.14
2018-09-13T23:23:05.873Z,13.26
2018-09-13T23:25:34.783Z,13.35
2018-09-13T23:28:03.116Z,13.32
2018-09-13T23:30:31.438Z,13.09
2018-09-13T23:32:59.770Z,12.85
2018-09-13T23:35:28.085Z,12.64
2018-09-13T23:37:56.412Z,12.53
2018-09-13T23:40:24.292Z,12.50
2018-09-13T23:42:53.314Z,12.59
2018-09-13T23:45:20.863Z,12.76
2018-09-13T23:47:49.173Z,12.91
2018-09-13T23:50:17.490Z,13.00
2018-09-13T23:52:45.818Z,12.97
2018-09-13T23:55:14.725Z,12.82
2018-09-13T23:57:43.059Z,12.63
